Imst, Austria
Current Conditions -  °F | °C
As of 11:20 AM on Friday 24 Oct 2014 (Local Time) from LOWI Reporting Station
Broken Clouds Broken Clouds  
Wind Chill: 40°   Ceiling: 2000
Heat Index: 43°   Visibility: 6mi
Dew Point: 39°   Wind: 5mph
Humidity: 87%   Direction: 280°W
Pressure: 30.24"   Gusts: NA
Location:  47.25°N, 10.73°E
Report Text: LOWI 240920Z 28004KT 260V330 9999 SCT010 BKN020 06/04 Q1024 NOSIG
Loading
Personal Weather Stations






























Interactive Weather Map
Tropical Storm Tracking
New forecast layout! Learn more

10-Day Weather Forecast

Advertisements
Track Severe Weather on mobile